createdAt,value
2019-05-23T00:01:18.877Z,101487.34
2019-05-23T00:04:07.720Z,101480.36
2019-05-23T00:06:39.480Z,101485.58
2019-05-23T00:09:09.882Z,101485.11
2019-05-23T00:11:58.923Z,101476.80
2019-05-23T00:14:43.270Z,101483.78
2019-05-23T00:17:18.820Z,101479.38
2019-05-23T00:19:50.411Z,101480.28
2019-05-23T00:22:20.541Z,101476.74
2019-05-23T00:24:52.960Z,101479.41
2019-05-23T00:27:24.934Z,101474.13
2019-05-23T00:29:57.461Z,101478.50
2019-05-23T00:32:37.784Z,101480.67
2019-05-23T00:35:09.892Z,101475.91
2019-05-23T00:37:43.775Z,101481.12
2019-05-23T00:40:16.015Z,101480.20
2019-05-23T00:42:46.461Z,101472.41
2019-05-23T00:45:17.404Z,101476.36
2019-05-23T00:47:49.168Z,101471.55
2019-05-23T00:50:21.365Z,101476.84
2019-05-23T00:52:53.240Z,101481.64
2019-05-23T00:55:24.240Z,101477.24
2019-05-23T00:57:54.679Z,101469.81
2019-05-23T01:00:25.683Z,101475.01
2019-05-23T01:02:56.981Z,101470.64
2019-05-23T01:05:28.063Z,101468.92
2019-05-23T01:07:59.815Z,101476.34
2019-05-23T01:10:32.323Z,101470.64
2019-05-23T01:13:04.220Z,101475.00
2019-05-23T01:15:34.681Z,101470.64
2019-05-23T01:18:06.480Z,101472.75
2019-05-23T01:20:54.178Z,101476.23
2019-05-23T01:23:26.018Z,101481.48
2019-05-23T01:25:57.104Z,101470.94
2019-05-23T01:28:27.876Z,101470.94
2019-05-23T01:31:00.188Z,101469.27
2019-05-23T01:33:31.217Z,101470.60
2019-05-23T01:36:02.823Z,101467.08
2019-05-23T01:38:33.114Z,101473.63
2019-05-23T01:41:04.040Z,101467.95
2019-05-23T01:43:34.503Z,101474.11
2019-05-23T01:46:04.594Z,101464.49
2019-05-23T01:48:34.824Z,101462.73
2019-05-23T01:51:05.992Z,101465.77
2019-05-23T01:53:39.310Z,101462.75
2019-05-23T01:56:10.926Z,101462.75
2019-05-23T01:58:41.112Z,101461.89
2019-05-23T02:01:12.589Z,101464.53
2019-05-23T02:03:42.919Z,101461.94
2019-05-23T02:06:13.242Z,101465.00
2019-05-23T02:08:43.654Z,101468.92
2019-05-23T02:11:16.281Z,101460.61
2019-05-23T02:13:46.642Z,101461.06
2019-05-23T02:16:18.365Z,101464.56
2019-05-23T02:18:49.182Z,101460.22
2019-05-23T02:21:20.561Z,101462.38
2019-05-23T02:23:50.744Z,101454.97
2019-05-23T02:26:25.171Z,101451.91
2019-05-23T02:28:56.162Z,101454.99
2019-05-23T02:31:26.832Z,101448.40
2019-05-23T02:33:58.658Z,101451.46
2019-05-23T02:36:30.627Z,101448.86
2019-05-23T02:39:22.493Z,101447.09
2019-05-23T02:41:58.819Z,101442.71
2019-05-23T02:44:31.823Z,101440.10
2019-05-23T02:47:21.732Z,101444.91
2019-05-23T02:49:53.987Z,101442.28
2019-05-23T02:52:40.422Z,101439.64
2019-05-23T02:55:16.120Z,101441.81
2019-05-23T02:57:48.020Z,101439.21
2019-05-23T03:00:53.249Z,101436.99
2019-05-23T03:03:19.572Z,101439.21
2019-05-23T03:05:49.960Z,101437.45
2019-05-23T03:08:21.538Z,101437.45
2019-05-23T03:11:00.965Z,101442.67
2019-05-23T03:13:34.227Z,101443.16
2019-05-23T03:16:06.021Z,101436.16
2019-05-23T03:18:41.734Z,101437.00
2019-05-23T03:21:12.758Z,101431.33
2019-05-23T03:23:43.633Z,101441.80
2019-05-23T03:27:16.842Z,101434.83
2019-05-23T03:29:46.930Z,101438.28
2019-05-23T03:32:37.953Z,101435.68
2019-05-23T03:35:10.935Z,101441.83
2019-05-23T03:37:42.239Z,101441.39
2019-05-23T03:40:12.894Z,101443.55
2019-05-23T03:42:42.993Z,101443.13
2019-05-23T03:45:17.160Z,101437.04
2019-05-23T03:47:49.191Z,101440.09
2019-05-23T03:50:21.656Z,101435.30
2019-05-23T03:52:51.759Z,101438.38
2019-05-23T03:55:23.758Z,101436.23
2019-05-23T03:57:54.627Z,101440.63
2019-05-23T04:00:27.242Z,101436.23
2019-05-23T04:02:59.527Z,101437.13
2019-05-23T04:05:31.406Z,101434.05
2019-05-23T04:08:01.650Z,101434.12
2019-05-23T04:10:31.833Z,101438.52
2019-05-23T04:13:02.274Z,101443.75
2019-05-23T04:15:32.652Z,101439.39
2019-05-23T04:18:02.838Z,101435.03
2019-05-23T04:20:33.166Z,101442.90
2019-05-23T04:23:04.271Z,101442.01
2019-05-23T04:25:34.654Z,101445.94
2019-05-23T04:28:05.325Z,101447.27
2019-05-23T04:30:35.470Z,101450.30
2019-05-23T04:33:05.634Z,101448.11
2019-05-23T04:35:36.443Z,101453.38
2019-05-23T04:38:06.812Z,101456.84
2019-05-23T04:40:37.788Z,101454.66
2019-05-23T04:43:10.786Z,101459.02
2019-05-23T04:45:40.206Z,101453.31
2019-05-23T04:48:10.469Z,101465.99
2019-05-23T04:50:40.590Z,101457.67
2019-05-23T04:53:10.849Z,101457.67
2019-05-23T04:55:42.295Z,101452.81
2019-05-23T04:58:13.629Z,101453.23
2019-05-23T05:00:44.356Z,101455.83
2019-05-23T05:03:17.818Z,101455.32
2019-05-23T05:05:46.938Z,101463.52
2019-05-23T05:08:17.197Z,101467.55
2019-05-23T05:10:48.433Z,101470.33
2019-05-23T05:13:19.516Z,101476.33
2019-05-23T05:15:49.990Z,101480.69
2019-05-23T05:18:20.857Z,101482.27
2019-05-23T05:20:50.956Z,101484.16
2019-05-23T05:23:21.666Z,101490.50
2019-05-23T05:25:51.739Z,101489.51
2019-05-23T05:28:21.838Z,101493.42
2019-05-23T05:30:51.956Z,101493.02
2019-05-23T05:33:22.633Z,101503.52
2019-05-23T05:35:52.727Z,101502.63
2019-05-23T05:38:23.778Z,101505.52
2019-05-23T05:40:53.889Z,101502.94
2019-05-23T05:43:24.275Z,101506.64
2019-05-23T05:45:54.355Z,101503.27
2019-05-23T05:48:24.681Z,101501.93
2019-05-23T05:50:55.453Z,101517.64
2019-05-23T05:53:28.817Z,101509.66
2019-05-23T05:55:58.930Z,101515.02
2019-05-23T05:58:29.330Z,101512.88
2019-05-23T06:01:04.177Z,101512.09
2019-05-23T06:03:34.332Z,101512.80
2019-05-23T06:06:15.882Z,101519.91
2019-05-23T06:08:47.357Z,101518.33
2019-05-23T06:11:17.521Z,101520.99
2019-05-23T06:13:47.736Z,101524.48
2019-05-23T06:16:17.889Z,101527.30
2019-05-23T06:18:48.171Z,101527.27
2019-05-23T06:21:23.999Z,101519.25
2019-05-23T06:23:54.928Z,101525.19
2019-05-23T06:26:25.029Z,101528.64
2019-05-23T06:28:55.426Z,101528.48
2019-05-23T06:31:26.037Z,101531.44
2019-05-23T06:33:56.174Z,101527.91
2019-05-23T06:36:27.310Z,101524.08
2019-05-23T06:38:57.402Z,101525.83
2019-05-23T06:41:27.730Z,101521.44
2019-05-23T06:43:57.852Z,101525.58
2019-05-23T06:46:28.120Z,101527.83
2019-05-23T06:48:58.197Z,101527.35
2019-05-23T06:51:30.844Z,101534.98
2019-05-23T06:54:01.215Z,101533.09
2019-05-23T06:56:31.630Z,101526.50
2019-05-23T06:59:01.814Z,101526.05
2019-05-23T07:01:34.347Z,101531.95
2019-05-23T07:04:05.536Z,101532.53
2019-05-23T07:06:36.423Z,101531.33
2019-05-23T07:09:12.201Z,101525.75
2019-05-23T07:11:42.498Z,101534.45
2019-05-23T07:14:12.824Z,101532.13
2019-05-23T07:16:43.334Z,101532.11
2019-05-23T07:19:14.285Z,101530.16
2019-05-23T07:21:44.541Z,101524.63
2019-05-23T07:24:15.205Z,101528.73
2019-05-23T07:26:47.276Z,101526.18
2019-05-23T07:29:17.673Z,101525.14
2019-05-23T07:31:47.858Z,101529.81
2019-05-23T07:34:18.330Z,101531.94
2019-05-23T07:36:48.532Z,101527.55
2019-05-23T07:39:19.962Z,101529.27
2019-05-23T07:41:50.359Z,101530.22
2019-05-23T07:44:20.474Z,101535.02
2019-05-23T07:46:50.720Z,101528.93
2019-05-23T07:49:21.278Z,101535.66
2019-05-23T07:51:51.328Z,101539.52
2019-05-23T07:54:31.047Z,101530.50
2019-05-23T07:57:02.409Z,101531.61
2019-05-23T07:59:32.660Z,101537.08
2019-05-23T08:02:12.622Z,101529.59
2019-05-23T08:04:42.955Z,101517.87
2019-05-23T08:07:14.718Z,101520.20
2019-05-23T08:09:44.823Z,101521.70
2019-05-23T08:12:14.928Z,101516.41
2019-05-23T08:14:45.004Z,101521.50
2019-05-23T08:17:15.212Z,101524.66
2019-05-23T08:19:49.780Z,101524.86
2019-05-23T08:22:17.129Z,101517.80
2019-05-23T08:24:50.963Z,101516.11
2019-05-23T08:27:19.142Z,101518.83
2019-05-23T08:29:50.003Z,101520.78
2019-05-23T08:32:20.066Z,101516.30
2019-05-23T08:34:50.154Z,101512.24
2019-05-23T08:37:20.731Z,101511.13
2019-05-23T08:39:51.559Z,101520.30
2019-05-23T08:42:22.370Z,101515.69
2019-05-23T08:44:53.333Z,101510.12
2019-05-23T08:47:23.772Z,101515.56
2019-05-23T08:49:54.191Z,101506.78
2019-05-23T08:52:24.662Z,101509.23
2019-05-23T08:54:58.006Z,101515.92
2019-05-23T08:57:28.091Z,101508.03
2019-05-23T08:59:58.200Z,101512.73
2019-05-23T09:02:29.085Z,101520.19
2019-05-23T09:05:05.059Z,101514.75
2019-05-23T09:07:31.642Z,101508.88
2019-05-23T09:10:01.769Z,101505.30
2019-05-23T09:12:31.847Z,101512.95
2019-05-23T09:15:02.407Z,101509.59
2019-05-23T09:17:51.052Z,101511.11
2019-05-23T09:20:04.374Z,101505.73
2019-05-23T09:22:34.770Z,101510.16
2019-05-23T09:25:05.232Z,101500.57
2019-05-23T09:27:35.592Z,101511.49
2019-05-23T09:30:07.180Z,101501.45
2019-05-23T09:32:37.494Z,101494.61
2019-05-23T09:35:20.552Z,101502.88
2019-05-23T09:37:39.858Z,101497.46
2019-05-23T09:40:11.342Z,101502.00
2019-05-23T09:42:41.423Z,101507.66
2019-05-23T09:45:11.650Z,101502.70
2019-05-23T09:47:41.795Z,101500.88
2019-05-23T09:50:16.706Z,101507.59
2019-05-23T09:52:46.782Z,101499.41
2019-05-23T09:55:18.333Z,101495.73
2019-05-23T09:57:48.889Z,101494.81
2019-05-23T10:00:22.098Z,101492.27
2019-05-23T10:02:54.835Z,101489.48
2019-05-23T10:05:42.130Z,101492.50
2019-05-23T10:07:57.598Z,101492.94
2019-05-23T10:10:28.733Z,101493.38
2019-05-23T10:12:58.918Z,101484.12
2019-05-23T10:16:04.202Z,101485.86
2019-05-23T10:18:34.742Z,101491.45
2019-05-23T10:21:05.374Z,101479.26
2019-05-23T10:23:35.473Z,101482.62
2019-05-23T10:26:07.573Z,101491.88
2019-05-23T10:28:37.672Z,101481.91
2019-05-23T10:31:09.866Z,101477.82
2019-05-23T10:33:40.016Z,101478.99
2019-05-23T10:36:10.101Z,101482.19
2019-05-23T10:38:43.472Z,101476.57
2019-05-23T10:41:13.572Z,101479.39
2019-05-23T10:43:46.893Z,101471.67
2019-05-23T10:46:17.091Z,101464.73
2019-05-23T10:48:47.272Z,101470.31
2019-05-23T10:51:17.413Z,101465.39
2019-05-23T10:53:47.661Z,101467.26
2019-05-23T10:56:20.657Z,101464.16
2019-05-23T10:58:49.719Z,101461.00
2019-05-23T11:01:21.612Z,101458.62
2019-05-23T11:03:51.741Z,101455.69
2019-05-23T11:06:22.145Z,101452.23
2019-05-23T11:08:53.490Z,101455.81
2019-05-23T11:11:24.744Z,101455.26
2019-05-23T11:13:55.287Z,101453.66
2019-05-23T11:16:25.742Z,101464.44
2019-05-23T11:18:56.087Z,101452.96
2019-05-23T11:21:26.289Z,101460.53
2019-05-23T11:23:56.836Z,101451.85
2019-05-23T11:26:26.931Z,101450.26
2019-05-23T11:28:57.005Z,101448.11
2019-05-23T11:31:27.587Z,101444.01
2019-05-23T11:33:57.651Z,101441.34
2019-05-23T11:36:35.706Z,101439.20
2019-05-23T11:38:59.673Z,101440.56
2019-05-23T11:41:30.464Z,101428.53
2019-05-23T11:44:00.539Z,101428.39
2019-05-23T11:46:32.881Z,101423.55
2019-05-23T11:49:03.221Z,101422.95
2019-05-23T11:51:34.279Z,101422.28
2019-05-23T11:54:08.338Z,101427.20
2019-05-23T11:56:37.059Z,101418.12
2019-05-23T11:59:09.828Z,101419.47
2019-05-23T12:01:58.883Z,101422.66
2019-05-23T12:04:33.676Z,101422.48
2019-05-23T12:07:19.304Z,101424.88
2019-05-23T12:09:49.401Z,101425.45
2019-05-23T12:12:19.660Z,101417.86
2019-05-23T12:14:49.858Z,101409.65
2019-05-23T12:17:21.361Z,101413.14
2019-05-23T12:19:52.010Z,101404.31
2019-05-23T12:22:23.553Z,101410.13
2019-05-23T12:24:53.649Z,101420.45
2019-05-23T12:27:23.712Z,101408.36
2019-05-23T12:29:53.904Z,101403.69
2019-05-23T12:32:24.380Z,101400.97
2019-05-23T12:35:09.613Z,101400.25
2019-05-23T12:37:26.509Z,101397.58
2019-05-23T12:39:56.603Z,101398.30
2019-05-23T12:42:26.763Z,101401.66
2019-05-23T12:44:56.999Z,101397.39
2019-05-23T12:47:36.188Z,101386.40
2019-05-23T12:50:11.147Z,101383.13
2019-05-23T12:52:41.213Z,101381.67
2019-05-23T12:55:11.395Z,101376.47
2019-05-23T12:57:41.578Z,101376.18
2019-05-23T13:00:21.048Z,101375.84
2019-05-23T13:02:51.982Z,101367.29
2019-05-23T13:05:23.063Z,101372.64
2019-05-23T13:07:53.175Z,101371.55
2019-05-23T13:10:25.119Z,101370.83
2019-05-23T13:12:55.098Z,101357.44
2019-05-23T13:15:25.302Z,101354.02
2019-05-23T13:17:55.396Z,101358.67
2019-05-23T13:20:26.148Z,101356.09
2019-05-23T13:22:56.263Z,101354.72
2019-05-23T13:25:27.537Z,101359.85
2019-05-23T13:27:58.928Z,101365.39
2019-05-23T13:30:29.386Z,101363.31
2019-05-23T13:33:03.372Z,101359.17
2019-05-23T13:35:32.367Z,101357.23
2019-05-23T13:38:02.496Z,101352.50
2019-05-23T13:40:33.572Z,101349.73
2019-05-23T13:43:07.060Z,101350.03
2019-05-23T13:45:36.885Z,101355.66
2019-05-23T13:48:07.241Z,101350.30
2019-05-23T13:50:37.334Z,101347.56
2019-05-23T13:53:08.196Z,101350.21
2019-05-23T13:55:38.886Z,101345.50
2019-05-23T13:58:08.916Z,101337.31
2019-05-23T14:00:39.071Z,101338.09
2019-05-23T14:03:10.461Z,101337.14
2019-05-23T14:05:40.572Z,101341.03
2019-05-23T14:08:13.153Z,101336.92
2019-05-23T14:10:42.532Z,101328.27
2019-05-23T14:13:12.613Z,101329.09
2019-05-23T14:15:44.587Z,101329.25
2019-05-23T14:18:17.513Z,101327.16
2019-05-23T14:20:48.277Z,101328.58
2019-05-23T14:23:32.405Z,101323.82
2019-05-23T14:26:02.760Z,101328.02
2019-05-23T14:28:32.984Z,101324.66
2019-05-23T14:31:12.103Z,101316.31
2019-05-23T14:34:00.037Z,101316.69
2019-05-23T14:36:49.526Z,101320.22
2019-05-23T14:39:30.548Z,101317.95
2019-05-23T14:42:06.577Z,101314.83
2019-05-23T14:44:36.871Z,101307.91
2019-05-23T14:47:32.111Z,101307.97
2019-05-23T14:50:22.630Z,101307.50
2019-05-23T14:52:53.264Z,101307.06
2019-05-23T14:55:24.058Z,101299.97
2019-05-23T14:57:54.279Z,101302.47
2019-05-23T15:00:26.302Z,101303.29
2019-05-23T15:02:56.406Z,101303.91
2019-05-23T15:05:27.194Z,101290.02
2019-05-23T15:07:57.425Z,101289.83
2019-05-23T15:10:28.107Z,101297.59
2019-05-23T15:12:58.427Z,101294.18
2019-05-23T15:15:28.861Z,101288.19
2019-05-23T15:17:59.121Z,101282.44
2019-05-23T15:20:29.333Z,101284.25
2019-05-23T15:23:00.197Z,101291.44
2019-05-23T15:25:30.408Z,101290.87
2019-05-23T15:28:00.532Z,101282.96
2019-05-23T15:30:30.602Z,101274.84
2019-05-23T15:33:00.692Z,101269.52
2019-05-23T15:35:31.314Z,101270.23
2019-05-23T15:38:01.436Z,101266.80
2019-05-23T15:40:31.902Z,101269.86
2019-05-23T15:43:02.099Z,101267.64
2019-05-23T15:45:32.278Z,101265.59
2019-05-23T15:48:02.377Z,101262.12
2019-05-23T15:50:41.562Z,101258.09
2019-05-23T15:53:27.561Z,101264.07
2019-05-23T15:56:24.124Z,101260.86
2019-05-23T15:58:42.385Z,101256.67
2019-05-23T16:01:19.695Z,101259.66
2019-05-23T16:03:59.762Z,101249.59
2019-05-23T16:06:33.209Z,101247.51
2019-05-23T16:09:05.586Z,101243.20
2019-05-23T16:11:35.696Z,101240.51
2019-05-23T16:14:06.058Z,101235.14
2019-05-23T16:16:36.375Z,101235.88
2019-05-23T16:19:07.361Z,101238.13
2019-05-23T16:21:38.622Z,101236.55
2019-05-23T16:24:09.169Z,101232.09
2019-05-23T16:26:39.486Z,101228.55
2019-05-23T16:29:10.620Z,101222.23
2019-05-23T16:31:41.030Z,101216.55
2019-05-23T16:34:11.335Z,101213.56
2019-05-23T16:36:41.785Z,101219.87
2019-05-23T16:39:12.255Z,101209.43
2019-05-23T16:41:42.407Z,101210.30
2019-05-23T16:44:12.603Z,101208.67
2019-05-23T16:46:42.809Z,101208.09
2019-05-23T16:49:13.127Z,101211.57
2019-05-23T16:51:43.237Z,101213.28
2019-05-23T16:54:13.442Z,101209.25
2019-05-23T16:57:05.973Z,101207.33
2019-05-23T16:59:58.102Z,101202.54
2019-05-23T17:02:44.094Z,101210.00
2019-05-23T17:05:36.750Z,101204.86
2019-05-23T17:08:25.260Z,101199.05
2019-05-23T17:11:14.779Z,101201.84
2019-05-23T17:13:49.249Z,101198.01
2019-05-23T17:16:30.532Z,101202.20
2019-05-23T17:19:26.952Z,101199.45
2019-05-23T17:22:22.348Z,101191.61
2019-05-23T17:25:02.869Z,101197.25
2019-05-23T17:27:51.454Z,101191.86
2019-05-23T17:30:29.896Z,101182.86
2019-05-23T17:33:01.162Z,101186.31
2019-05-23T17:35:31.516Z,101184.48
2019-05-23T17:38:01.720Z,101187.05
2019-05-23T17:40:32.007Z,101173.27
2019-05-23T17:43:02.147Z,101182.84
2019-05-23T17:45:33.313Z,101177.20
2019-05-23T17:48:03.786Z,101176.13
2019-05-23T17:50:34.930Z,101174.88
2019-05-23T17:53:05.423Z,101172.50
2019-05-23T17:55:35.600Z,101172.11
2019-05-23T17:58:05.792Z,101167.23
2019-05-23T18:00:39.228Z,101168.13
2019-05-23T18:03:09.553Z,101163.11
2019-05-23T18:05:40.603Z,101162.91
2019-05-23T18:08:11.043Z,101164.50
2019-05-23T18:10:45.323Z,101156.89
2019-05-23T18:13:15.316Z,101157.44
2019-05-23T18:15:45.832Z,101156.16
2019-05-23T18:18:15.945Z,101153.22
2019-05-23T18:20:46.272Z,101148.77
2019-05-23T18:23:16.791Z,101147.42
2019-05-23T18:25:47.132Z,101147.52
2019-05-23T18:28:17.796Z,101141.44
2019-05-23T18:31:07.571Z,101147.05
2019-05-23T18:33:34.925Z,101148.06
2019-05-23T18:36:05.421Z,101146.41
2019-05-23T18:38:36.798Z,101143.13
2019-05-23T18:41:09.224Z,101138.95
2019-05-23T18:43:39.295Z,101136.45
2019-05-23T18:46:14.999Z,101134.30
2019-05-23T18:48:45.186Z,101136.49
2019-05-23T18:51:15.333Z,101134.77
2019-05-23T18:53:46.774Z,101143.30
2019-05-23T18:56:17.582Z,101141.05
2019-05-23T18:58:47.773Z,101138.78
2019-05-23T19:01:20.140Z,101135.78
2019-05-23T19:03:50.548Z,101134.79
2019-05-23T19:06:21.136Z,101132.69
2019-05-23T19:08:52.003Z,101138.52
2019-05-23T19:11:22.467Z,101136.08
2019-05-23T19:13:52.716Z,101135.92
2019-05-23T19:16:28.552Z,101134.28
2019-05-23T19:18:58.708Z,101129.84
2019-05-23T19:21:29.667Z,101132.50
2019-05-23T19:23:59.785Z,101133.04
2019-05-23T19:26:30.081Z,101136.61
2019-05-23T19:29:00.599Z,101134.73
2019-05-23T19:31:32.621Z,101134.16
2019-05-23T19:34:02.919Z,101134.80
2019-05-23T19:36:33.891Z,101137.01
2019-05-23T19:39:06.317Z,101134.67
2019-05-23T19:41:38.308Z,101137.94
2019-05-23T19:44:08.798Z,101132.36
2019-05-23T19:46:39.275Z,101133.91
2019-05-23T19:49:09.769Z,101131.97
2019-05-23T19:51:40.121Z,101132.08
2019-05-23T19:54:10.385Z,101130.68
2019-05-23T19:56:41.797Z,101134.49
2019-05-23T19:59:12.094Z,101131.86
2019-05-23T20:02:00.420Z,101128.94
2019-05-23T20:04:33.017Z,101124.09
2019-05-23T20:07:03.527Z,101128.06
2019-05-23T20:09:33.665Z,101123.93
2019-05-23T20:12:04.602Z,101129.70
2019-05-23T20:14:34.751Z,101125.50
2019-05-23T20:17:04.917Z,101117.91
2019-05-23T20:19:35.150Z,101128.87
2019-05-23T20:22:05.262Z,101119.55
2019-05-23T20:24:36.348Z,101119.78
2019-05-23T20:27:06.613Z,101120.90
2019-05-23T20:29:36.805Z,101122.22
2019-05-23T20:32:07.599Z,101127.31
2019-05-23T20:34:37.910Z,101128.02
2019-05-23T20:37:15.678Z,101121.47
2019-05-23T20:39:45.955Z,101125.23
2019-05-23T20:42:16.165Z,101121.20
2019-05-23T20:44:46.377Z,101117.84
2019-05-23T20:47:16.755Z,101119.84
2019-05-23T20:49:46.994Z,101115.65
2019-05-23T20:52:17.156Z,101105.22
2019-05-23T20:54:47.314Z,101110.26
2019-05-23T20:57:17.496Z,101109.84
2019-05-23T20:59:47.624Z,101110.88
2019-05-23T21:02:17.714Z,101110.88
2019-05-23T21:04:47.866Z,101107.46
2019-05-23T21:07:18.764Z,101109.74
2019-05-23T21:09:48.867Z,101106.58
2019-05-23T21:12:29.532Z,101106.50
2019-05-23T21:14:51.647Z,101106.00
2019-05-23T21:17:21.776Z,101105.66
2019-05-23T21:19:51.890Z,101103.51
2019-05-23T21:22:22.040Z,101095.34
2019-05-23T21:24:52.156Z,101093.75
2019-05-23T21:27:22.750Z,101094.89
2019-05-23T21:29:52.890Z,101097.68
2019-05-23T21:32:23.008Z,101089.48
2019-05-23T21:34:53.182Z,101091.05
2019-05-23T21:37:23.347Z,101092.93
2019-05-23T21:39:53.742Z,101091.30
2019-05-23T21:42:23.941Z,101091.95
2019-05-23T21:44:54.043Z,101092.09
2019-05-23T21:47:24.236Z,101095.21
2019-05-23T21:49:55.014Z,101090.46
2019-05-23T21:52:25.127Z,101094.62
2019-05-23T21:54:55.228Z,101092.27
2019-05-23T21:57:25.347Z,101088.13
2019-05-23T21:59:55.453Z,101096.41
2019-05-23T22:02:31.505Z,101095.16
2019-05-23T22:05:11.376Z,101107.83
2019-05-23T22:07:41.487Z,101102.68
2019-05-23T22:10:11.739Z,101103.61
2019-05-23T22:12:41.979Z,101099.18
2019-05-23T22:15:14.981Z,101101.58
2019-05-23T22:17:47.551Z,101099.72
2019-05-23T22:20:17.649Z,101099.23
2019-05-23T22:22:47.788Z,101097.31
2019-05-23T22:25:24.255Z,101100.25
2019-05-23T22:27:54.372Z,101099.84
2019-05-23T22:30:24.413Z,101095.16
2019-05-23T22:32:54.521Z,101093.58
2019-05-23T22:35:24.869Z,101092.91
2019-05-23T22:37:54.992Z,101091.23
2019-05-23T22:40:25.126Z,101087.52
2019-05-23T22:42:57.869Z,101089.29
2019-05-23T22:45:28.825Z,101084.13
2019-05-23T22:47:58.941Z,101082.28
2019-05-23T22:50:32.321Z,101087.75
2019-05-23T22:53:02.514Z,101080.59
2019-05-23T22:55:32.578Z,101086.02
2019-05-23T22:58:02.661Z,101086.23
2019-05-23T23:00:34.806Z,101079.41
2019-05-23T23:03:04.898Z,101078.78
2019-05-23T23:05:35.010Z,101081.46
2019-05-23T23:08:05.094Z,101073.66
2019-05-23T23:10:35.244Z,101086.27
2019-05-23T23:13:05.568Z,101068.27
2019-05-23T23:15:35.842Z,101069.11
2019-05-23T23:18:08.260Z,101074.58
2019-05-23T23:20:38.386Z,101073.66
2019-05-23T23:23:08.617Z,101074.06
2019-05-23T23:25:38.735Z,101070.42
2019-05-23T23:28:08.857Z,101072.21
2019-05-23T23:30:42.831Z,101079.23
2019-05-23T23:33:13.017Z,101075.54
2019-05-23T23:35:43.049Z,101077.19
2019-05-23T23:38:14.643Z,101066.94
2019-05-23T23:40:44.708Z,101065.62
2019-05-23T23:43:14.800Z,101069.72
2019-05-23T23:46:02.746Z,101066.19
2019-05-23T23:48:50.760Z,101073.12
2019-05-23T23:51:38.733Z,101075.05
2019-05-23T23:54:26.764Z,101066.38
2019-05-23T23:57:14.922Z,101065.06
2019-05-23T23:59:44.133Z,101071.70
